Time;durP1;ratioP1;P1;durP2;ratioP2;P2;SDS_P1;SDS_P2;PMS_P1;PMS_P2;Temp;Humidity;BMP_temperature;BMP_pressure;BME280_temperature;BME280_humidity;BME280_pressure;Samples;Min_cycle;Max_cycle;Signal;HPM_P1;HPM_P2
2023/12/02 00:00:35;;;;;;;16.20;8.03;;;2.50;99.00;;;;;;5019123;28;20485;-83
2023/12/02 00:03:02;;;;;;;18.40;9.67;;;2.60;99.10;;;;;;5018601;28;20503;-83
2023/12/02 00:05:29;;;;;;;6.00;4.23;;;2.60;99.20;;;;;;5021494;28;20476;-84
2023/12/02 00:17:05;;;;;;;17.80;10.00;;;2.60;99.00;;;;;;4995637;28;20996;-67
2023/12/02 00:19:32;;;;;;;18.57;9.60;;;2.60;99.20;;;;;;5000690;28;20482;-67
2023/12/02 00:21:59;;;;;;;13.30;10.07;;;2.60;98.90;;;;;;4965007;28;20481;-67
2023/12/02 00:24:26;;;;;;;14.70;9.47;;;2.60;98.80;;;;;;5000216;28;20528;-67
2023/12/02 00:26:52;;;;;;;14.93;9.97;;;2.60;98.50;;;;;;5002388;28;20513;-67
2023/12/02 00:29:19;;;;;;;16.13;9.60;;;2.60;98.50;;;;;;4999603;28;20523;-67
2023/12/02 00:31:46;;;;;;;13.90;9.70;;;2.60;98.80;;;;;;4999094;28;20973;-66
2023/12/02 00:34:14;;;;;;;11.80;7.70;;;2.50;98.60;;;;;;5000018;28;20716;-67
2023/12/02 00:36:44;;;;;;;17.83;10.10;;;2.50;98.40;;;;;;4994886;28;20570;-67
2023/12/02 00:39:11;;;;;;;19.23;10.43;;;2.50;98.50;;;;;;5005284;28;20595;-67
2023/12/02 00:41:37;;;;;;;20.57;10.37;;;2.50;98.60;;;;;;5001817;28;20485;-67
2023/12/02 00:44:04;;;;;;;17.20;9.77;;;2.50;98.40;;;;;;5004314;28;20474;-66
2023/12/02 00:46:32;;;;;;;18.97;11.60;;;2.50;98.60;;;;;;5002374;28;20520;-67
2023/12/02 00:48:59;;;;;;;26.23;13.40;;;2.50;98.90;;;;;;5002892;28;20488;-66
2023/12/02 00:51:27;;;;;;;15.40;9.57;;;2.50;98.80;;;;;;5002831;28;20909;-67
2023/12/02 00:53:54;;;;;;;16.00;8.40;;;2.50;98.70;;;;;;5000242;28;20489;-69
2023/12/02 00:56:21;;;;;;;18.80;10.07;;;2.50;98.60;;;;;;5000406;28;20937;-70
2023/12/02 00:58:47;;;;;;;17.53;10.53;;;2.60;98.40;;;;;;5000289;28;20477;-69
2023/12/02 01:01:14;;;;;;;16.97;10.27;;;2.60;98.30;;;;;;4999206;28;20488;-68
2023/12/02 01:03:42;;;;;;;21.27;8.93;;;2.60;98.30;;;;;;4998652;28;20483;-69
2023/12/02 01:06:09;;;;;;;16.23;10.03;;;2.60;98.30;;;;;;5011276;28;20485;-67
2023/12/02 01:08:38;;;;;;;16.50;9.27;;;2.60;98.10;;;;;;5004212;28;20888;-65
2023/12/02 01:11:05;;;;;;;11.03;7.07;;;2.50;97.80;;;;;;5000313;28;20567;-66
2023/12/02 01:13:32;;;;;;;14.67;9.47;;;2.50;97.90;;;;;;4997124;28;20492;-66
2023/12/02 01:15:59;;;;;;;20.13;11.50;;;2.50;97.90;;;;;;4989244;28;20943;-66
2023/12/02 01:18:26;;;;;;;16.43;8.70;;;2.50;98.00;;;;;;5003593;28;20561;-66
2023/12/02 01:20:52;;;;;;;13.70;9.40;;;2.40;97.80;;;;;;5002460;28;20568;-66
2023/12/02 01:23:19;;;;;;;14.90;8.73;;;2.40;98.00;;;;;;4993218;28;20560;-66
2023/12/02 01:25:47;;;;;;;16.97;8.60;;;2.40;98.00;;;;;;4992442;28;20469;-66
2023/12/02 01:28:14;;;;;;;11.97;8.40;;;2.40;98.00;;;;;;4992054;28;20903;-65
2023/12/02 01:30:41;;;;;;;57.50;11.20;;;2.50;98.00;;;;;;4999143;28;20493;-67
2023/12/02 01:33:08;;;;;;;14.00;7.30;;;2.40;97.80;;;;;;5002576;28;20466;-66
2023/12/02 01:35:35;;;;;;;9.43;6.70;;;2.40;97.60;;;;;;4997119;28;20730;-66
2023/12/02 01:38:01;;;;;;;12.73;7.40;;;2.30;97.70;;;;;;4997892;28;20552;-66
2023/12/02 01:40:28;;;;;;;12.60;8.40;;;2.30;97.80;;;;;;4999112;28;20501;-67
2023/12/02 01:42:57;;;;;;;18.70;8.70;;;2.40;97.90;;;;;;4992898;28;20492;-67
2023/12/02 01:45:24;;;;;;;18.57;6.30;;;2.40;97.80;;;;;;4991283;28;20485;-65
2023/12/02 01:47:51;;;;;;;8.90;5.93;;;2.30;97.80;;;;;;4986909;28;20489;-66
2023/12/02 01:50:20;;;;;;;10.60;7.37;;;2.30;97.50;;;;;;4995717;28;20526;-66
2023/12/02 01:52:46;;;;;;;24.00;8.00;;;2.30;97.70;;;;;;5001199;28;20493;-66
2023/12/02 01:55:13;;;;;;;14.90;8.40;;;2.30;97.80;;;;;;4999282;28;20497;-66
2023/12/02 01:57:41;;;;;;;8.93;6.90;;;2.30;97.70;;;;;;5002193;28;20540;-66
2023/12/02 02:00:10;;;;;;;14.83;8.33;;;2.30;97.80;;;;;;4992764;28;20540;-66
2023/12/02 02:02:37;;;;;;;24.60;8.00;;;2.30;97.70;;;;;;4987607;28;20482;-67
2023/12/02 02:05:05;;;;;;;23.27;7.87;;;2.30;97.60;;;;;;4987785;28;20480;-69
2023/12/02 02:07:31;;;;;;;11.10;7.60;;;2.30;97.60;;;;;;4993400;28;20486;-69
2023/12/02 02:09:58;;;;;;;12.77;8.10;;;2.20;97.50;;;;;;4997955;28;20868;-67
2023/12/02 02:12:25;;;;;;;22.20;6.90;;;2.30;97.60;;;;;;5003592;28;20889;-68
2023/12/02 02:14:52;;;;;;;13.07;7.93;;;2.30;97.50;;;;;;4998163;28;20921;-66
2023/12/02 02:17:21;;;;;;;12.67;8.20;;;2.30;97.60;;;;;;4995047;28;20517;-66
2023/12/02 02:19:48;;;;;;;16.80;8.70;;;2.30;97.40;;;;;;4992636;28;21168;-66
2023/12/02 02:22:16;;;;;;;11.23;8.30;;;2.30;97.50;;;;;;5006245;28;20477;-67
2023/12/02 02:24:43;;;;;;;13.63;8.33;;;2.30;97.20;;;;;;5002500;28;20537;-69
2023/12/02 02:27:10;;;;;;;15.23;7.87;;;2.20;97.30;;;;;;5001991;28;20528;-68
2023/12/02 02:29:37;;;;;;;16.23;7.80;;;2.20;97.20;;;;;;4996169;28;20485;-68
2023/12/02 02:32:04;;;;;;;11.00;6.60;;;2.20;97.40;;;;;;4999000;28;20592;-67
2023/12/02 02:34:31;;;;;;;10.93;7.80;;;2.20;97.30;;;;;;4999705;28;20570;-67
2023/12/02 02:36:58;;;;;;;12.13;7.50;;;2.20;97.30;;;;;;4998052;28;20544;-68
2023/12/02 02:39:26;;;;;;;24.53;8.53;;;2.30;97.20;;;;;;4997913;28;20992;-69
2023/12/02 02:41:54;;;;;;;11.50;7.60;;;2.30;97.20;;;;;;4998304;28;20548;-67
2023/12/02 02:44:21;;;;;;;16.87;7.33;;;2.30;97.00;;;;;;4999148;28;20556;-68
2023/12/02 02:46:48;;;;;;;13.63;7.60;;;2.30;97.10;;;;;;4996606;28;20486;-67
2023/12/02 02:49:14;;;;;;;13.03;8.07;;;2.30;97.20;;;;;;4999935;28;20482;-67
2023/12/02 02:51:42;;;;;;;17.90;9.33;;;2.30;97.00;;;;;;5001779;28;20516;-68
2023/12/02 02:54:09;;;;;;;41.37;9.10;;;2.30;97.20;;;;;;5005481;28;20473;-68
2023/12/02 02:56:37;;;;;;;14.00;7.70;;;2.30;97.10;;;;;;5004649;28;20508;-68
2023/12/02 02:59:04;;;;;;;16.30;8.07;;;2.30;96.70;;;;;;4999168;28;20493;-69
2023/12/02 03:01:31;;;;;;;18.53;8.30;;;2.30;97.00;;;;;;5009085;28;21101;-68
2023/12/02 03:03:58;;;;;;;9.47;6.90;;;2.30;97.10;;;;;;4998986;28;20492;-68
2023/12/02 03:06:25;;;;;;;8.77;6.70;;;2.20;96.90;;;;;;4998597;28;20481;-68
2023/12/02 03:08:52;;;;;;;11.93;5.60;;;2.20;96.80;;;;;;5004525;28;20563;-68
2023/12/02 03:11:20;;;;;;;6.67;5.13;;;2.20;96.80;;;;;;4998764;28;20543;-67
2023/12/02 03:13:51;;;;;;;26.67;8.23;;;2.20;97.10;;;;;;5000970;28;20547;-68
2023/12/02 03:16:18;;;;;;;8.83;6.13;;;2.20;97.10;;;;;;4992114;28;20536;-66
2023/12/02 03:18:45;;;;;;;16.80;7.20;;;2.20;97.10;;;;;;5001203;28;20485;-66
2023/12/02 03:21:12;;;;;;;17.57;7.30;;;2.20;97.00;;;;;;4995320;28;20871;-66
2023/12/02 03:23:38;;;;;;;9.60;6.60;;;2.30;97.20;;;;;;5007301;28;21034;-66
2023/12/02 03:26:06;;;;;;;11.30;8.13;;;2.30;97.10;;;;;;4996851;28;20473;-66
2023/12/02 03:28:33;;;;;;;25.23;7.10;;;2.20;97.00;;;;;;4998219;28;20532;-66
2023/12/02 03:31:01;;;;;;;12.47;8.03;;;2.30;97.30;;;;;;5003244;28;20568;-66
2023/12/02 03:33:28;;;;;;;9.80;7.33;;;2.30;97.30;;;;;;4998039;28;20484;-65
2023/12/02 03:35:55;;;;;;;30.33;8.63;;;2.40;97.20;;;;;;4996900;28;20984;-68
2023/12/02 03:38:22;;;;;;;11.67;7.80;;;;;;;;;;4997890;28;20493;-67
2023/12/02 03:40:49;;;;;;;14.07;7.87;;;2.40;97.00;;;;;;5000668;28;20485;-67
2023/12/02 03:43:16;;;;;;;14.47;6.63;;;2.30;96.80;;;;;;4998408;28;21122;-67
2023/12/02 03:45:43;;;;;;;10.93;7.63;;;2.30;96.90;;;;;;4999929;28;20982;-67
2023/12/02 03:48:12;;;;;;;35.93;8.10;;;;;;;;;;5001585;28;20566;-67
2023/12/02 03:50:39;;;;;;;7.57;5.83;;;2.30;96.90;;;;;;4992321;28;20472;-68
2023/12/02 03:53:05;;;;;;;23.07;6.10;;;2.30;96.90;;;;;;5007352;28;20696;-68
2023/12/02 03:55:32;;;;;;;15.17;7.20;;;2.20;96.80;;;;;;5000928;28;20489;-67
2023/12/02 03:57:59;;;;;;;9.40;6.70;;;2.20;96.80;;;;;;5009669;28;20531;-67
2023/12/02 04:00:27;;;;;;;11.27;6.10;;;2.20;96.90;;;;;;5005827;28;20485;-67
2023/12/02 04:02:53;;;;;;;14.00;6.67;;;2.20;96.90;;;;;;5006367;28;20472;-67
2023/12/02 04:05:22;;;;;;;12.10;7.10;;;2.20;96.70;;;;;;5003401;28;20489;-67
2023/12/02 04:07:50;;;;;;;12.30;7.60;;;2.20;96.80;;;;;;5001121;28;20505;-67
2023/12/02 04:10:16;;;;;;;14.33;7.83;;;2.20;96.60;;;;;;4993217;28;20481;-67
2023/12/02 04:12:43;;;;;;;11.47;7.57;;;2.10;96.70;;;;;;5002261;28;20535;-68
2023/12/02 04:15:11;;;;;;;16.33;7.00;;;2.10;96.60;;;;;;5009145;28;20531;-67
2023/12/02 04:17:38;;;;;;;13.63;9.33;;;2.10;96.70;;;;;;4997515;28;21207;-67
2023/12/02 04:20:08;;;;;;;13.27;9.10;;;2.10;96.80;;;;;;5007283;28;20484;-67
2023/12/02 04:22:38;;;;;;;17.03;8.70;;;;;;;;;;4996895;28;20477;-67
2023/12/02 04:25:06;;;;;;;14.70;8.60;;;2.20;96.80;;;;;;4999848;28;20486;-68
2023/12/02 04:27:33;;;;;;;13.10;6.03;;;2.10;96.60;;;;;;4999324;28;20528;-66
2023/12/02 04:30:00;;;;;;;13.37;7.50;;;2.10;96.70;;;;;;4999632;28;20543;-67
2023/12/02 04:32:27;;;;;;;13.63;7.70;;;2.20;96.80;;;;;;5000590;28;21213;-67
2023/12/02 04:34:55;;;;;;;14.30;7.37;;;2.10;96.50;;;;;;5005433;28;20486;-67
2023/12/02 04:37:24;;;;;;;9.57;7.10;;;2.10;96.60;;;;;;5003819;28;20473;-67
2023/12/02 04:39:53;;;;;;;8.13;6.50;;;2.20;96.70;;;;;;5001583;28;20544;-67
2023/12/02 04:42:20;;;;;;;9.53;7.17;;;2.20;96.70;;;;;;4994967;28;20477;-67
2023/12/02 04:44:47;;;;;;;14.20;6.17;;;2.10;96.40;;;;;;5012316;28;20478;-66
2023/12/02 04:47:13;;;;;;;7.23;4.70;;;2.10;96.30;;;;;;4999665;28;20854;-66
2023/12/02 04:49:41;;;;;;;9.80;5.40;;;2.00;96.10;;;;;;5002080;28;20485;-66
2023/12/02 04:52:08;;;;;;;16.70;7.50;;;2.00;96.20;;;;;;5003401;28;20842;-66
2023/12/02 04:54:35;;;;;;;9.17;5.83;;;2.00;96.30;;;;;;5004411;28;20850;-66
2023/12/02 04:57:04;;;;;;;34.43;7.67;;;2.00;96.60;;;;;;5000740;28;20500;-66
2023/12/02 04:59:30;;;;;;;10.33;5.60;;;2.00;96.40;;;;;;5006085;28;20551;-66
2023/12/02 05:01:57;;;;;;;20.90;7.33;;;1.90;96.10;;;;;;5004551;28;20525;-66
2023/12/02 05:04:24;;;;;;;17.17;6.10;;;1.90;96.10;;;;;;5000152;28;20465;-66
2023/12/02 05:06:52;;;;;;;14.40;7.20;;;1.90;96.10;;;;;;4997998;28;20478;-66
2023/12/02 05:09:20;;;;;;;11.37;6.83;;;1.90;96.30;;;;;;5000815;28;21091;-65
2023/12/02 05:11:48;;;;;;;40.20;7.93;;;2.00;96.40;;;;;;5010041;28;20714;-66
2023/12/02 05:14:18;;;;;;;12.00;6.70;;;2.00;96.20;;;;;;4987712;28;20528;-66
2023/12/02 05:16:45;;;;;;;8.83;6.80;;;1.90;96.00;;;;;;5000798;28;20497;-65
2023/12/02 05:19:12;;;;;;;19.23;6.87;;;1.90;96.00;;;;;;5000303;28;20482;-66
2023/12/02 05:21:39;;;;;;;9.20;6.50;;;1.90;96.10;;;;;;5004983;28;20481;-66
2023/12/02 05:24:08;;;;;;;14.37;7.50;;;1.80;96.10;;;;;;4996572;28;20544;-66
2023/12/02 05:26:35;;;;;;;11.97;6.20;;;1.90;96.30;;;;;;5006136;28;20508;-66
2023/12/02 05:29:02;;;;;;;9.17;5.80;;;1.80;96.20;;;;;;4995709;28;20519;-65
2023/12/02 05:31:30;;;;;;;18.60;6.67;;;1.80;96.00;;;;;;5008482;28;20480;-65
2023/12/02 05:33:58;;;;;;;13.17;4.97;;;1.80;95.90;;;;;;5009224;28;20918;-68
2023/12/02 05:36:25;;;;;;;21.23;7.50;;;1.80;96.00;;;;;;5001609;28;20645;-67
2023/12/02 05:38:53;;;;;;;22.07;7.00;;;1.80;95.90;;;;;;4999434;28;20478;-67
2023/12/02 05:41:19;;;;;;;12.13;5.20;;;1.80;95.80;;;;;;4999779;28;20486;-67
2023/12/02 05:43:46;;;;;;;7.70;6.77;;;1.80;96.10;;;;;;5000737;28;20477;-68
2023/12/02 05:46:16;;;;;;;33.80;7.07;;;1.80;95.90;;;;;;4997909;28;20563;-68
2023/12/02 05:48:44;;;;;;;10.80;7.20;;;1.80;96.10;;;;;;5004467;28;20593;-67
2023/12/02 05:51:13;;;;;;;14.87;7.90;;;1.80;96.00;;;;;;4997614;28;20477;-67
2023/12/02 05:53:40;;;;;;;20.20;7.53;;;1.80;96.10;;;;;;5002373;28;20917;-67
2023/12/02 05:56:08;;;;;;;12.97;6.40;;;1.90;96.20;;;;;;5000487;28;20493;-67
2023/12/02 05:58:35;;;;;;;11.47;6.60;;;1.90;96.10;;;;;;4998563;28;20562;-68
2023/12/02 06:01:02;;;;;;;12.30;6.53;;;;;;;;;;5013566;28;20465;-67
2023/12/02 06:03:29;;;;;;;8.10;5.70;;;1.90;96.00;;;;;;4998275;28;20489;-67
2023/12/02 06:05:57;;;;;;;50.27;8.03;;;1.90;96.00;;;;;;5000602;28;20470;-68
2023/12/02 06:08:24;;;;;;;9.77;6.60;;;1.90;96.00;;;;;;5003099;28;20542;-67
2023/12/02 06:10:51;;;;;;;25.90;6.83;;;1.90;95.80;;;;;;4999163;28;20490;-67
2023/12/02 06:13:18;;;;;;;21.17;7.20;;;1.90;95.90;;;;;;5005217;28;20478;-67
2023/12/02 06:15:45;;;;;;;10.03;7.13;;;1.90;95.80;;;;;;4986943;28;21050;-67
2023/12/02 06:18:12;;;;;;;15.50;7.17;;;1.80;95.90;;;;;;4997303;28;20576;-67
2023/12/02 06:20:38;;;;;;;31.90;6.37;;;1.80;95.60;;;;;;4997319;28;21080;-68
2023/12/02 06:23:07;;;;;;;8.13;5.80;;;1.80;95.60;;;;;;5004538;28;20536;-68
2023/12/02 06:25:33;;;;;;;10.80;5.20;;;1.70;95.50;;;;;;5001820;28;20497;-67
2023/12/02 06:28:00;;;;;;;44.43;8.17;;;1.60;95.60;;;;;;5000528;28;20555;-68
2023/12/02 06:30:27;;;;;;;15.07;6.47;;;1.60;95.70;;;;;;4987248;28;20868;-68
2023/12/02 06:32:54;;;;;;;10.37;6.77;;;1.60;95.70;;;;;;5011760;28;20486;-68
2023/12/02 06:35:22;;;;;;;9.00;5.47;;;1.60;95.90;;;;;;5000551;28;20485;-67
2023/12/02 06:37:49;;;;;;;8.40;5.87;;;1.60;95.80;;;;;;4998809;28;20478;-67
2023/12/02 06:40:18;;;;;;;15.30;6.37;;;;;;;;;;4998356;28;20493;-68
2023/12/02 06:42:45;;;;;;;14.03;6.40;;;1.60;95.90;;;;;;4994507;28;20523;-67
2023/12/02 06:45:12;;;;;;;16.50;6.70;;;1.60;95.90;;;;;;4999274;28;20484;-68
2023/12/02 06:47:39;;;;;;;11.67;5.80;;;1.50;95.70;;;;;;4998968;28;20486;-67
2023/12/02 06:50:07;;;;;;;9.60;7.13;;;1.50;95.70;;;;;;5000930;28;20482;-67
2023/12/02 06:52:34;;;;;;;13.63;7.60;;;1.60;95.90;;;;;;5000158;28;20552;-67
2023/12/02 06:55:00;;;;;;;38.37;8.00;;;1.60;96.00;;;;;;5000974;28;21104;-67
2023/12/02 06:57:29;;;;;;;16.73;7.30;;;1.60;95.80;;;;;;4997293;28;20556;-68
2023/12/02 06:59:55;;;;;;;15.23;7.87;;;1.50;95.70;;;;;;4997982;28;20499;-67
2023/12/02 07:02:22;;;;;;;42.43;9.63;;;1.50;95.80;;;;;;4997127;28;20552;-67
2023/12/02 07:04:49;;;;;;;17.17;10.97;;;1.60;95.90;;;;;;5003446;28;20890;-67
2023/12/02 07:07:16;;;;;;;9.37;7.23;;;1.60;95.80;;;;;;4997149;28;20477;-68
2023/12/02 07:09:43;;;;;;;14.63;7.60;;;1.60;95.90;;;;;;5004060;28;20480;-68
2023/12/02 07:12:10;;;;;;;12.63;7.97;;;1.60;95.80;;;;;;4999459;28;20536;-68
2023/12/02 07:14:38;;;;;;;23.50;7.87;;;1.60;95.60;;;;;;4999938;28;20471;-67
2023/12/02 07:17:05;;;;;;;18.00;7.20;;;1.60;95.70;;;;;;5000018;28;20575;-68
2023/12/02 07:19:32;;;;;;;13.47;7.47;;;1.60;95.80;;;;;;4990792;28;20481;-67
2023/12/02 07:21:59;;;;;;;21.77;8.60;;;1.60;95.80;;;;;;5013007;28;20876;-67
2023/12/02 07:24:26;;;;;;;8.63;6.60;;;1.60;95.70;;;;;;4989594;28;20536;-67
2023/12/02 07:26:53;;;;;;;24.43;7.10;;;1.50;95.60;;;;;;5006678;28;20496;-68
2023/12/02 07:29:19;;;;;;;9.87;7.37;;;1.50;95.60;;;;;;5013141;28;22974;-67
2023/12/02 07:31:48;;;;;;;24.40;8.10;;;1.50;95.60;;;;;;5003233;28;20489;-67
2023/12/02 07:34:14;;;;;;;11.40;7.60;;;1.50;95.60;;;;;;5004058;28;20539;-68
2023/12/02 07:36:41;;;;;;;14.50;6.40;;;1.40;95.40;;;;;;4988885;28;21291;-68
2023/12/02 07:39:08;;;;;;;12.80;8.43;;;1.40;95.40;;;;;;5002877;28;21269;-68
2023/12/02 07:41:35;;;;;;;8.07;6.20;;;1.40;95.40;;;;;;4998430;28;20542;-67
2023/12/02 07:44:03;;;;;;;12.90;7.00;;;1.40;95.70;;;;;;5003099;28;20481;-69
2023/12/02 07:46:30;;;;;;;7.10;5.90;;;1.40;95.50;;;;;;5000443;28;20540;-68
2023/12/02 07:48:58;;;;;;;7.60;6.27;;;;;;;;;;5004362;28;20480;-68
2023/12/02 07:51:25;;;;;;;16.07;7.30;;;1.30;95.60;;;;;;5000605;28;20481;-68
2023/12/02 07:53:55;;;;;;;22.63;9.00;;;1.40;95.70;;;;;;4993168;28;21192;-66
2023/12/02 07:56:22;;;;;;;17.03;6.63;;;1.40;95.60;;;;;;5015594;28;20482;-66
2023/12/02 07:58:49;;;;;;;11.67;6.20;;;1.40;95.60;;;;;;5002291;28;20489;-66
2023/12/02 08:01:15;;;;;;;10.00;6.07;;;1.40;95.50;;;;;;5006660;28;20469;-65
2023/12/02 08:03:42;;;;;;;26.63;7.63;;;1.40;95.20;;;;;;5002579;28;20916;-65
2023/12/02 08:06:11;;;;;;;39.03;7.07;;;1.30;95.40;;;;;;4999952;28;20481;-65
2023/12/02 08:08:38;;;;;;;5.90;5.00;;;1.30;95.20;;;;;;5018247;28;20531;-65
2023/12/02 08:11:06;;;;;;;11.90;6.40;;;1.30;95.10;;;;;;4985640;28;20539;-66
2023/12/02 08:13:33;;;;;;;9.07;6.27;;;1.30;95.20;;;;;;4991477;28;20602;-66
2023/12/02 08:16:00;;;;;;;8.90;6.17;;;1.30;95.30;;;;;;5008562;28;20544;-66
2023/12/02 08:18:26;;;;;;;9.53;6.80;;;1.30;95.50;;;;;;5002478;28;20564;-66
2023/12/02 08:20:53;;;;;;;7.93;5.63;;;1.30;95.30;;;;;;4995213;28;20481;-66
2023/12/02 08:23:21;;;;;;;6.20;3.80;;;1.30;95.20;;;;;;5014043;28;20560;-66
2023/12/02 08:25:48;;;;;;;11.90;5.03;;;1.20;95.10;;;;;;5015100;28;20520;-66
2023/12/02 08:28:15;;;;;;;7.00;4.60;;;1.30;95.40;;;;;;5006796;28;20536;-66
2023/12/02 08:30:42;;;;;;;19.60;7.37;;;;;;;;;;4998513;28;20492;-66
2023/12/02 08:33:10;;;;;;;14.33;7.03;;;1.30;95.40;;;;;;5004575;28;20481;-66
2023/12/02 08:35:36;;;;;;;12.57;7.60;;;1.40;95.30;;;;;;4999201;28;20488;-66
2023/12/02 08:38:03;;;;;;;14.53;5.30;;;1.40;95.40;;;;;;5005032;28;20535;-66
2023/12/02 08:40:31;;;;;;;9.23;6.90;;;1.40;95.40;;;;;;4994732;28;20531;-66
2023/12/02 08:42:58;;;;;;;11.30;6.10;;;1.40;95.30;;;;;;5012419;28;20490;-66
2023/12/02 08:45:25;;;;;;;11.07;6.27;;;1.50;95.40;;;;;;5000225;28;20477;-66
2023/12/02 08:47:52;;;;;;;9.93;7.00;;;1.50;95.50;;;;;;4999750;28;21223;-66
2023/12/02 08:50:19;;;;;;;12.07;7.20;;;1.50;95.30;;;;;;5007079;28;20530;-66
2023/12/02 08:52:46;;;;;;;12.33;6.60;;;1.50;95.30;;;;;;5002369;28;20485;-66
2023/12/02 08:55:12;;;;;;;9.90;6.87;;;1.60;95.30;;;;;;4992249;28;20547;-66
2023/12/02 08:57:41;;;;;;;8.67;6.40;;;1.60;95.40;;;;;;5015453;28;20477;-66
2023/12/02 09:00:09;;;;;;;6.63;5.57;;;1.50;94.80;;;;;;4998515;28;20486;-66
2023/12/02 09:02:35;;;;;;;7.10;5.80;;;1.40;94.90;;;;;;4996757;28;20564;-66
2023/12/02 09:05:05;;;;;;;21.30;6.70;;;1.40;94.90;;;;;;5005949;28;20538;-66
2023/12/02 09:07:32;;;;;;;8.17;6.00;;;1.40;94.90;;;;;;5003344;28;20590;-66
2023/12/02 09:09:59;;;;;;;9.90;5.40;;;1.40;95.00;;;;;;5000497;28;20854;-66
2023/12/02 09:12:26;;;;;;;12.93;5.77;;;1.40;95.10;;;;;;5001853;28;20477;-66
2023/12/02 09:15:08;;;;;;;7.80;5.47;;;1.40;94.90;;;;;;5000898;28;20532;-66
2023/12/02 09:18:07;;;;;;;10.67;6.43;;;1.40;94.80;;;;;;5000388;28;20614;-66
2023/12/02 09:20:45;;;;;;;9.93;6.40;;;1.40;94.80;;;;;;4994678;28;20891;-66
2023/12/02 09:23:13;;;;;;;7.00;5.10;;;1.40;94.70;;;;;;5000686;28;20611;-66
2023/12/02 09:25:40;;;;;;;40.57;7.00;;;1.40;94.60;;;;;;5000846;28;20528;-68
2023/12/02 09:28:16;;;;;;;7.93;5.67;;;1.40;94.50;;;;;;5007471;28;20992;-68
2023/12/02 09:30:56;;;;;;;7.10;4.97;;;1.40;94.70;;;;;;4991975;28;20527;-68
2023/12/02 09:33:22;;;;;;;31.63;6.80;;;1.30;94.70;;;;;;4998159;28;20852;-68
2023/12/02 09:35:54;;;;;;;11.70;6.93;;;1.30;94.90;;;;;;4999563;28;20489;-68
2023/12/02 09:38:21;;;;;;;9.17;5.33;;;1.30;94.80;;;;;;5007494;28;20473;-67
2023/12/02 09:41:09;;;;;;;15.00;6.67;;;1.40;94.90;;;;;;4993728;28;20996;-68
2023/12/02 09:43:42;;;;;;;8.80;6.10;;;1.40;95.00;;;;;;4988927;28;21124;-67
2023/12/02 09:46:27;;;;;;;36.73;8.03;;;1.50;94.90;;;;;;4995353;28;20484;-67
2023/12/02 09:49:10;;;;;;;10.93;6.10;;;1.50;94.70;;;;;;5002917;28;20505;-67
2023/12/02 09:51:56;;;;;;;8.13;5.87;;;1.50;94.70;;;;;;4988421;28;20496;-67
2023/12/02 09:54:30;;;;;;;9.63;4.97;;;1.40;93.90;;;;;;5000802;28;20477;-67
2023/12/02 09:57:03;;;;;;;9.13;6.77;;;1.40;94.40;;;;;;4997702;28;21021;-67
2023/12/02 09:59:43;;;;;;;9.80;6.90;;;1.40;94.40;;;;;;4996988;28;20551;-67
2023/12/02 10:02:35;;;;;;;9.67;5.23;;;1.40;94.40;;;;;;4999512;28;20877;-68
2023/12/02 10:05:10;;;;;;;9.30;5.27;;;1.40;94.60;;;;;;4992365;28;21340;-67
2023/12/02 10:07:49;;;;;;;14.73;6.17;;;1.50;94.80;;;;;;5000013;28;20503;-67
2023/12/02 10:10:22;;;;;;;11.93;6.60;;;1.50;94.80;;;;;;4978920;28;20907;-67
2023/12/02 10:12:59;;;;;;;6.30;4.80;;;1.50;94.40;;;;;;5008343;28;20903;-68
2023/12/02 10:15:29;;;;;;;8.50;5.57;;;1.50;94.40;;;;;;5005747;28;20489;-65
2023/12/02 10:18:06;;;;;;;8.83;4.93;;;1.50;94.30;;;;;;5003334;28;20477;-66
2023/12/02 10:20:36;;;;;;;36.90;7.57;;;1.50;94.40;;;;;;5000874;28;20485;-66
2023/12/02 10:23:11;;;;;;;10.00;6.27;;;1.50;94.40;;;;;;5000361;28;20481;-66
2023/12/02 10:25:43;;;;;;;12.50;6.77;;;1.50;94.30;;;;;;4987687;28;20477;-66
2023/12/02 10:28:21;;;;;;;12.57;6.73;;;1.50;94.30;;;;;;4999967;28;20574;-66
2023/12/02 10:30:56;;;;;;;15.83;7.20;;;1.50;94.20;;;;;;5010906;28;20519;-66
2023/12/02 10:33:34;;;;;;;16.00;6.63;;;1.50;94.20;;;;;;5005295;28;20499;-66
2023/12/02 10:36:05;;;;;;;10.30;7.60;;;1.40;94.00;;;;;;4993941;28;20571;-67
2023/12/02 10:38:46;;;;;;;10.27;6.70;;;1.40;94.20;;;;;;5000223;28;20853;-67
2023/12/02 10:41:21;;;;;;;43.97;10.00;;;1.30;93.80;;;;;;4995807;28;20901;-67
2023/12/02 10:43:52;;;;;;;7.87;5.50;;;1.30;93.60;;;;;;4988625;28;21122;-67
2023/12/02 10:46:20;;;;;;;7.50;6.03;;;1.30;93.90;;;;;;4999439;28;20493;-67
2023/12/02 10:48:48;;;;;;;12.93;7.80;;;1.30;94.10;;;;;;4993176;28;20477;-67
2023/12/02 10:51:16;;;;;;;20.67;7.27;;;1.30;93.80;;;;;;5003730;28;21922;-67
2023/12/02 10:53:44;;;;;;;12.10;7.40;;;1.30;93.90;;;;;;5002584;28;21046;-67
2023/12/02 10:56:16;;;;;;;10.57;7.40;;;1.40;94.30;;;;;;4987987;28;20531;-67
2023/12/02 10:58:44;;;;;;;10.93;5.00;;;1.30;93.50;;;;;;5013231;28;21447;-67
2023/12/02 11:01:11;;;;;;;14.83;8.57;;;1.30;93.70;;;;;;4999052;28;20478;-68
2023/12/02 11:03:47;;;;;;;11.30;6.60;;;1.40;93.90;;;;;;5005034;28;20477;-68
2023/12/02 11:06:29;;;;;;;12.07;7.30;;;1.30;93.50;;;;;;4968756;28;20473;-68
2023/12/02 11:09:02;;;;;;;28.90;8.37;;;1.30;93.90;;;;;;4991340;28;20501;-66
2023/12/02 11:11:43;;;;;;;10.30;6.87;;;1.30;93.50;;;;;;5002445;28;20539;-68
2023/12/02 11:14:16;;;;;;;6.17;5.57;;;1.20;93.40;;;;;;5003210;28;20481;-67
2023/12/02 11:16:51;;;;;;;17.23;7.10;;;1.20;93.30;;;;;;4995082;28;20493;-67
2023/12/02 11:19:27;;;;;;;7.00;5.80;;;1.20;93.30;;;;;;4988070;28;20481;-67
2023/12/02 11:22:11;;;;;;;8.73;6.33;;;1.10;93.30;;;;;;4988829;28;20529;-67
2023/12/02 11:24:52;;;;;;;14.20;6.53;;;1.10;93.40;;;;;;5001360;28;20508;-67
2023/12/02 11:27:29;;;;;;;8.97;6.43;;;1.20;93.60;;;;;;4988214;28;20523;-67
2023/12/02 11:30:08;;;;;;;36.40;13.80;;;1.10;93.20;;;;;;5001645;28;20896;-66
2023/12/02 11:32:46;;;;;;;9.63;6.13;;;1.20;93.70;;;;;;5005173;28;20476;-66
2023/12/02 11:35:18;;;;;;;13.20;7.77;;;1.20;93.70;;;;;;5003096;28;20480;-66
2023/12/02 11:37:57;;;;;;;13.60;6.77;;;1.20;93.20;;;;;;4991311;28;20579;-67
2023/12/02 11:40:29;;;;;;;7.67;5.20;;;1.20;93.70;;;;;;5008582;28;20523;-67
2023/12/02 11:43:04;;;;;;;9.40;6.77;;;1.20;93.70;;;;;;5002418;28;20481;-67
2023/12/02 11:45:37;;;;;;;7.40;5.90;;;1.20;93.40;;;;;;5000316;28;20585;-66
2023/12/02 11:48:13;;;;;;;15.83;5.40;;;1.20;92.90;;;;;;5000431;28;20485;-66
2023/12/02 11:50:55;;;;;;;27.37;6.70;;;1.20;93.30;;;;;;4993282;28;21034;-66
2023/12/02 11:53:42;;;;;;;18.77;6.93;;;1.20;92.70;;;;;;5003521;28;20488;-66
2023/12/02 11:56:12;;;;;;;12.87;7.23;;;1.20;92.90;;;;;;4990697;28;20820;-67
2023/12/02 11:58:51;;;;;;;10.23;6.67;;;1.20;93.00;;;;;;5011164;28;20864;-67
2023/12/02 12:01:31;;;;;;;11.27;5.93;;;1.20;93.00;;;;;;5003752;28;20851;-67
2023/12/02 12:04:14;;;;;;;49.63;8.60;;;1.20;93.10;;;;;;4993374;28;20492;-66
2023/12/02 12:06:56;;;;;;;9.30;6.53;;;1.30;93.10;;;;;;5005011;28;21712;-66
2023/12/02 12:09:41;;;;;;;8.97;5.93;;;1.40;93.10;;;;;;4978690;28;20489;-66
2023/12/02 12:12:11;;;;;;;10.93;7.50;;;1.40;93.00;;;;;;5011501;28;21069;-66
2023/12/02 12:14:41;;;;;;;17.83;5.70;;;1.30;92.90;;;;;;5003225;28;20573;-66
2023/12/02 12:17:08;;;;;;;13.70;7.70;;;1.40;92.80;;;;;;5002174;28;20529;-66
2023/12/02 12:19:35;;;;;;;7.20;5.43;;;1.30;92.10;;;;;;5009599;28;20526;-67
2023/12/02 12:22:02;;;;;;;8.77;6.50;;;1.20;92.10;;;;;;5004653;28;20528;-66
2023/12/02 12:24:31;;;;;;;32.63;7.20;;;1.20;93.00;;;;;;5001672;28;20532;-66
2023/12/02 12:26:57;;;;;;;8.20;6.23;;;1.30;92.80;;;;;;5000213;28;20539;-66
2023/12/02 12:29:24;;;;;;;11.73;5.63;;;1.40;93.00;;;;;;5005215;28;20485;-66
2023/12/02 12:31:54;;;;;;;20.47;7.77;;;;;;;;;;5004309;28;20493;-66
2023/12/02 12:34:21;;;;;;;10.50;5.50;;;1.40;92.30;;;;;;5005067;28;20976;-67
2023/12/02 12:36:47;;;;;;;8.40;7.43;;;1.50;92.90;;;;;;5000926;28;20579;-67
2023/12/02 12:39:16;;;;;;;23.17;9.50;;;1.50;92.80;;;;;;4996705;28;20514;-68
2023/12/02 12:41:44;;;;;;;14.90;8.53;;;1.60;92.50;;;;;;4993159;28;20245;-67
2023/12/02 12:44:13;;;;;;;20.80;7.93;;;;;;;;;;5000712;28;20493;-68
2023/12/02 12:46:42;;;;;;;22.07;7.30;;;1.80;92.70;;;;;;5002780;28;20481;-67
2023/12/02 12:49:09;;;;;;;11.30;7.13;;;1.80;92.50;;;;;;5010290;28;20482;-67
2023/12/02 12:51:41;;;;;;;11.57;7.53;;;1.80;92.20;;;;;;5000691;28;20485;-67
2023/12/02 12:54:12;;;;;;;10.93;8.20;;;1.80;92.50;;;;;;5005248;28;20568;-66
2023/12/02 12:56:51;;;;;;;10.43;6.97;;;1.80;92.20;;;;;;5000394;28;20536;-66
2023/12/02 12:59:19;;;;;;;43.40;8.67;;;1.80;92.30;;;;;;5002814;28;21082;-66
2023/12/02 13:01:55;;;;;;;18.00;11.47;;;1.80;92.20;;;;;;5002328;28;20540;-66
2023/12/02 13:04:29;;;;;;;15.00;8.77;;;1.80;92.30;;;;;;4998240;28;21201;-66
2023/12/02 13:07:04;;;;;;;14.03;9.87;;;1.90;92.10;;;;;;4965029;28;20551;-66
2023/12/02 13:09:32;;;;;;;9.27;5.80;;;1.80;91.80;;;;;;5007277;28;20481;-66